createdAt,value
2023-01-29T00:01:28.521Z,99240.06
2023-01-29T00:06:32.378Z,99224.41
2023-01-29T00:11:37.507Z,99239.59
2023-01-29T00:16:41.174Z,99227.78
2023-01-29T00:21:44.950Z,99236.44
2023-01-29T00:26:50.140Z,99233.06
2023-01-29T00:31:53.868Z,99234.28
2023-01-29T00:37:05.002Z,99228.72
2023-01-29T00:42:27.526Z,99226.56
2023-01-29T00:47:34.482Z,99227.88
2023-01-29T00:52:38.714Z,99239.31
2023-01-29T00:57:43.669Z,99219.81
2023-01-29T01:03:05.217Z,99232.09
2023-01-29T01:08:29.328Z,99231.38
2023-01-29T01:13:36.241Z,99234.63
2023-01-29T01:18:40.032Z,99233.19
2023-01-29T01:23:43.624Z,99224.03
2023-01-29T01:28:48.626Z,99229.00
2023-01-29T01:33:54.318Z,99229.69
2023-01-29T01:39:00.758Z,99236.44
2023-01-29T01:44:07.278Z,99200.25
2023-01-29T01:49:15.886Z,99211.44
2023-01-29T01:54:25.014Z,99233.16
2023-01-29T01:59:29.924Z,99220.03
2023-01-29T02:04:50.883Z,99218.59
2023-01-29T02:09:59.985Z,99215.44
2023-01-29T02:15:06.533Z,99231.56
2023-01-29T02:20:18.107Z,99234.94
2023-01-29T02:25:58.981Z,99238.34
2023-01-29T02:31:13.884Z,99231.97
2023-01-29T02:36:28.736Z,99135.66
2023-01-29T02:41:39.151Z,99212.19
2023-01-29T02:46:52.292Z,99191.47
2023-01-29T02:52:03.427Z,99215.47
2023-01-29T02:57:16.295Z,99220.75
2023-01-29T03:02:27.634Z,99222.69
2023-01-29T03:07:45.070Z,99228.22
2023-01-29T03:13:20.409Z,99224.63
2023-01-29T03:18:30.815Z,99217.38
2023-01-29T03:23:55.493Z,99220.75
2023-01-29T03:29:18.325Z,99224.84
2023-01-29T03:34:34.874Z,99220.78
2023-01-29T03:39:39.201Z,99221.00
2023-01-29T03:44:59.112Z,99219.31
2023-01-29T03:50:19.402Z,99221.13
2023-01-29T03:55:32.006Z,99219.06
2023-01-29T04:00:40.257Z,99216.66
2023-01-29T04:05:50.356Z,99228.94
2023-01-29T04:11:03.708Z,99225.22
2023-01-29T04:16:37.422Z,99219.81
2023-01-29T04:22:05.239Z,99223.88
2023-01-29T04:27:24.196Z,99232.06
2023-01-29T04:32:34.048Z,99233.06
2023-01-29T04:37:45.179Z,99229.31
2023-01-29T04:42:56.243Z,99221.25
2023-01-29T04:48:08.471Z,99241.97
2023-01-29T04:53:19.036Z,99219.06
2023-01-29T04:58:29.896Z,99227.75
2023-01-29T05:03:35.379Z,99244.38
2023-01-29T05:08:41.601Z,99151.09
2023-01-29T05:13:45.497Z,99231.09
2023-01-29T05:18:49.452Z,99181.66
2023-01-29T05:24:13.515Z,99239.44
2023-01-29T05:29:18.090Z,99250.84
2023-01-29T05:34:21.823Z,99230.41
2023-01-29T05:39:26.912Z,99233.53
2023-01-29T05:44:30.630Z,99204.47
2023-01-29T05:49:34.203Z,99181.38
2023-01-29T05:54:39.535Z,99182.81
2023-01-29T05:59:43.132Z,99196.19
2023-01-29T06:04:46.832Z,99195.34
2023-01-29T06:09:51.836Z,99202.22
2023-01-29T06:14:55.597Z,99130.25
2023-01-29T06:19:59.399Z,99201.50
2023-01-29T06:25:04.965Z,99211.00
2023-01-29T06:30:09.854Z,99210.75
2023-01-29T06:35:13.412Z,99207.69
2023-01-29T06:40:18.811Z,99218.91
2023-01-29T06:45:22.722Z,99218.50
2023-01-29T06:50:26.333Z,99222.13
2023-01-29T06:55:31.268Z,99217.22
2023-01-29T07:00:35.197Z,99228.41
2023-01-29T07:05:38.833Z,99234.94
2023-01-29T07:10:43.738Z,99220.25
2023-01-29T07:15:47.341Z,99218.69
2023-01-29T07:20:50.964Z,99222.78
2023-01-29T07:25:56.000Z,99232.69
2023-01-29T07:30:59.990Z,99252.06
2023-01-29T07:36:04.137Z,99214.44
2023-01-29T07:41:10.348Z,99252.78
2023-01-29T07:46:14.193Z,99255.81
2023-01-29T07:51:18.637Z,99264.59
2023-01-29T07:56:23.770Z,99263.38
2023-01-29T08:01:27.536Z,99263.66
2023-01-29T08:06:31.290Z,99263.53
2023-01-29T08:11:36.301Z,99279.19
2023-01-29T08:16:39.953Z,99267.72
2023-01-29T08:21:44.619Z,99189.69
2023-01-29T08:26:49.707Z,99278.31
2023-01-29T08:31:53.398Z,99267.19
2023-01-29T08:36:56.972Z,99287.22
2023-01-29T08:42:01.903Z,99280.75
2023-01-29T08:47:05.796Z,99278.94
2023-01-29T08:52:09.475Z,99292.28
2023-01-29T08:57:14.411Z,99283.50
2023-01-29T09:02:18.016Z,99276.88
2023-01-29T09:07:21.865Z,99292.50
2023-01-29T09:12:27.271Z,99224.13
2023-01-29T09:17:30.855Z,99301.81
2023-01-29T09:22:34.726Z,99300.75
2023-01-29T09:27:40.064Z,99305.06
2023-01-29T09:32:53.331Z,99299.50
2023-01-29T09:37:57.420Z,99298.19
2023-01-29T09:43:05.657Z,99277.25
2023-01-29T09:48:12.611Z,99273.28
2023-01-29T09:53:21.181Z,99264.16
2023-01-29T09:58:30.175Z,99244.13
2023-01-29T10:03:51.797Z,99236.69
2023-01-29T10:09:34.432Z,99235.00
2023-01-29T10:14:50.610Z,99243.41
2023-01-29T10:20:07.695Z,99242.34
2023-01-29T10:25:15.245Z,99238.59
2023-01-29T10:30:29.533Z,99241.03
2023-01-29T10:35:36.875Z,99241.97
2023-01-29T10:40:47.771Z,99243.69
2023-01-29T10:46:01.935Z,99252.59
2023-01-29T10:51:17.551Z,99243.69
2023-01-29T10:56:38.569Z,99240.06
2023-01-29T11:01:43.674Z,99229.22
2023-01-29T11:06:47.767Z,99257.16
2023-01-29T11:11:56.311Z,99239.31
2023-01-29T11:17:01.475Z,99237.78
2023-01-29T11:22:05.270Z,99213.53
2023-01-29T11:27:16.709Z,99203.66
2023-01-29T11:32:31.002Z,99195.69
2023-01-29T11:37:38.054Z,99195.69
2023-01-29T11:42:41.645Z,99187.28
2023-01-29T11:47:50.389Z,99192.47
2023-01-29T11:52:54.824Z,99188.34
2023-01-29T11:58:04.705Z,99174.47
2023-01-29T12:03:17.886Z,99154.84
2023-01-29T12:08:22.932Z,99154.00
2023-01-29T12:13:28.919Z,99136.41
2023-01-29T12:18:38.366Z,99127.22
2023-01-29T12:23:51.280Z,99115.53
2023-01-29T12:29:07.233Z,99111.28
2023-01-29T12:34:17.498Z,99091.97
2023-01-29T12:39:22.150Z,99081.34
2023-01-29T12:44:34.763Z,99047.25
2023-01-29T12:49:42.533Z,99051.41
2023-01-29T12:54:51.068Z,99051.81
2023-01-29T12:59:59.989Z,99056.53
2023-01-29T13:05:18.422Z,99050.97
2023-01-29T13:10:27.035Z,99038.41
2023-01-29T13:15:36.152Z,99034.25
2023-01-29T13:20:42.210Z,99025.09
2023-01-29T13:25:45.948Z,99031.34
2023-01-29T13:31:12.312Z,99040.56
2023-01-29T13:36:23.369Z,99022.22
2023-01-29T13:41:35.133Z,99046.03
2023-01-29T13:46:42.733Z,99035.00
2023-01-29T13:51:47.755Z,99036.66
2023-01-29T13:57:00.533Z,99048.84
2023-01-29T14:02:20.867Z,99039.56
2023-01-29T14:07:50.990Z,99025.03
2023-01-29T14:12:55.661Z,99023.97
2023-01-29T14:18:04.110Z,99022.38
2023-01-29T14:23:21.631Z,99019.44
2023-01-29T14:28:27.224Z,99017.31
2023-01-29T14:33:36.327Z,99012.59
2023-01-29T14:38:42.785Z,99013.69
2023-01-29T14:43:46.498Z,99011.53
2023-01-29T14:48:51.912Z,99000.94
2023-01-29T14:54:02.576Z,98999.72
2023-01-29T14:59:17.508Z,98976.03
2023-01-29T15:04:27.309Z,99015.66
2023-01-29T15:09:40.920Z,99022.88
2023-01-29T15:14:52.212Z,99020.75
2023-01-29T15:19:56.900Z,99027.09
2023-01-29T15:25:07.817Z,99018.28
2023-01-29T15:30:17.857Z,99009.03
2023-01-29T15:35:29.786Z,99010.72
2023-01-29T15:40:36.301Z,99015.09
2023-01-29T15:45:42.438Z,98948.47
2023-01-29T15:50:47.355Z,99007.44
2023-01-29T15:55:53.878Z,99015.53
2023-01-29T16:01:00.144Z,98968.50
2023-01-29T16:06:07.064Z,99008.53
2023-01-29T16:11:12.221Z,99008.59
2023-01-29T16:16:23.035Z,99002.53
2023-01-29T16:21:30.056Z,99006.19
2023-01-29T16:26:38.249Z,99004.00
2023-01-29T16:31:44.030Z,99001.94
2023-01-29T16:36:49.522Z,99012.25
2023-01-29T16:42:21.855Z,99012.72
2023-01-29T16:47:30.092Z,99020.44
2023-01-29T16:52:35.025Z,99019.50
2023-01-29T16:57:41.544Z,99029.56
2023-01-29T17:02:45.352Z,99028.88
2023-01-29T17:07:49.157Z,98998.03
2023-01-29T17:12:57.905Z,99014.00
2023-01-29T17:18:01.656Z,99020.63
2023-01-29T17:23:05.304Z,99007.34
2023-01-29T17:28:13.998Z,99011.31
2023-01-29T17:33:21.853Z,99010.72
2023-01-29T17:38:26.958Z,98996.66
2023-01-29T17:43:31.990Z,99010.72
2023-01-29T17:48:35.618Z,99003.13
2023-01-29T17:53:47.453Z,99009.53
2023-01-29T17:58:52.547Z,99005.06
2023-01-29T18:03:56.263Z,98937.16
2023-01-29T18:08:59.884Z,98996.06
2023-01-29T18:14:13.572Z,98988.38
2023-01-29T18:19:22.147Z,99001.34
2023-01-29T18:24:26.678Z,98990.56
2023-01-29T18:29:31.773Z,98994.31
2023-01-29T18:34:35.399Z,98994.44
2023-01-29T18:39:39.027Z,98988.44
2023-01-29T18:44:44.089Z,98993.72
2023-01-29T18:49:47.744Z,98983.59
2023-01-29T18:54:51.606Z,98996.16
2023-01-29T18:59:56.776Z,99010.13
2023-01-29T19:05:00.570Z,99003.41
2023-01-29T19:10:06.835Z,99006.03
2023-01-29T19:15:12.693Z,99012.91
2023-01-29T19:20:16.580Z,99016.06
2023-01-29T19:25:20.608Z,99021.34
2023-01-29T19:30:25.832Z,98988.31
2023-01-29T19:35:29.402Z,99025.81
2023-01-29T19:40:33.070Z,99018.38
2023-01-29T19:45:50.434Z,99021.47
2023-01-29T19:50:56.708Z,99010.66
2023-01-29T19:56:01.836Z,99012.13
2023-01-29T20:01:08.799Z,99011.88
2023-01-29T20:06:12.425Z,99011.41
2023-01-29T20:11:16.963Z,99014.06
2023-01-29T20:16:23.458Z,99006.94
2023-01-29T20:21:27.201Z,98990.00
2023-01-29T20:26:30.927Z,98997.25
2023-01-29T20:31:36.417Z,98986.13
2023-01-29T20:36:40.183Z,98929.41
2023-01-29T20:41:43.767Z,98975.06
2023-01-29T20:46:48.680Z,98967.94
2023-01-29T20:51:52.284Z,98935.59
2023-01-29T20:56:55.877Z,98959.56
2023-01-29T21:02:01.570Z,98954.09
2023-01-29T21:07:05.619Z,98946.91
2023-01-29T21:12:09.306Z,98945.00
2023-01-29T21:17:14.290Z,98953.66
2023-01-29T21:22:17.899Z,98969.78
2023-01-29T21:27:22.313Z,98963.06
2023-01-29T21:32:29.067Z,98970.75
2023-01-29T21:37:36.814Z,98971.97
2023-01-29T21:42:58.045Z,98965.84
2023-01-29T21:48:02.905Z,98950.06
2023-01-29T21:53:06.677Z,98962.59
2023-01-29T21:58:10.223Z,98951.41
2023-01-29T22:03:15.228Z,98953.22
2023-01-29T22:08:20.471Z,98943.59
2023-01-29T22:13:24.349Z,98957.31
2023-01-29T22:18:29.226Z,98799.50
2023-01-29T22:23:33.598Z,98949.88
2023-01-29T22:28:39.862Z,98944.81
2023-01-29T22:33:45.585Z,98949.16
2023-01-29T22:38:49.173Z,98926.91
2023-01-29T22:43:52.609Z,98911.38
2023-01-29T22:48:57.611Z,98906.94
2023-01-29T22:54:01.570Z,98883.47
2023-01-29T23:04:57.904Z,98858.31
2023-01-29T23:10:01.607Z,98845.72
2023-01-29T23:15:05.793Z,98845.47
2023-01-29T23:20:12.761Z,98844.38
2023-01-29T23:25:16.772Z,98839.22
2023-01-29T23:30:20.526Z,98849.56
2023-01-29T23:35:25.907Z,98847.66
2023-01-29T23:40:29.458Z,98835.38
2023-01-29T23:45:33.049Z,98830.06
2023-01-29T23:50:38.205Z,98810.25
2023-01-29T23:55:43.564Z,98806.53
